Time;durP1;ratioP1;P1;durP2;ratioP2;P2;SDS_P1;SDS_P2;PMS_P1;PMS_P2;Temp;Humidity;BMP_temperature;BMP_pressure;BME280_temperature;BME280_humidity;BME280_pressure;Samples;Min_cycle;Max_cycle;Signal;HPM_P1;HPM_P2
2023/03/18 00:01:38;;;;;;;;;;;;;;;9.89;100.00;97512.78;5120285;27;19946;-65
2023/03/18 00:04:05;;;;;;;;;;;;;;;9.88;100.00;97500.50;5122422;28;19939;-65
2023/03/18 00:06:31;;;;;;;;;;;;;;;9.84;100.00;97502.13;5122595;28;19997;-65
2023/03/18 00:08:58;;;;;;;;;;;;;;;9.78;100.00;97496.75;5120390;28;19923;-65
2023/03/18 00:11:24;;;;;;;;;;;;;;;9.61;100.00;97498.09;5118673;28;19928;-65
2023/03/18 00:13:51;;;;;;;;;;;;;;;9.63;100.00;97507.44;5120051;28;20000;-65
2023/03/18 00:16:20;;;;;;;;;;;;;;;9.67;100.00;97505.84;5122434;28;19924;-65
2023/03/18 00:18:46;;;;;;;;;;;;;;;9.72;100.00;97503.16;5121771;28;19959;-65
2023/03/18 00:21:13;;;;;;;;;;;;;;;9.71;100.00;97506.91;5118836;28;19962;-65
2023/03/18 00:23:39;;;;;;;;;;;;;;;9.75;100.00;97505.28;5118642;28;19934;-65
2023/03/18 00:26:07;;;;;;;;;;;;;;;9.77;100.00;97516.53;5122145;28;19963;-65
2023/03/18 00:28:34;;;;;;;;;;;;;;;9.76;100.00;97512.25;5122135;28;19928;-65
2023/03/18 00:31:07;;;;;;;;;;;;;;;9.77;100.00;97513.03;5120782;28;19927;-65
2023/03/18 00:33:35;;;;;;;;;;;;;;;9.41;100.00;97506.09;5118566;28;19924;-65
2023/03/18 00:36:01;;;;;;;;;;;;;;;9.03;100.00;97521.47;5121100;28;19928;-65
2023/03/18 00:38:28;;;;;;;;;;;;;;;9.18;100.00;97518.84;5121875;28;19924;-65
2023/03/18 00:41:00;;;;;;;;;;;;;;;9.38;100.00;97512.75;5119884;28;19975;-65
2023/03/18 00:43:28;;;;;;;;;;;;;;;9.46;100.00;97517.56;5118330;28;19931;-65
2023/03/18 00:45:55;;;;;;;;;;;;;;;9.54;100.00;97521.56;5119907;28;20494;-65
2023/03/18 00:48:22;;;;;;;;;;;;;;;9.57;100.00;97529.81;5121820;28;19967;-65
2023/03/18 00:50:50;;;;;;;;;;;;;;;9.62;100.00;97529.81;5121193;28;19924;-65
2023/03/18 00:53:16;;;;;;;;;;;;;;;9.67;100.00;97539.69;5118557;28;19967;-65
2023/03/18 00:55:43;;;;;;;;;;;;;;;9.64;100.00;97537.56;5118188;28;19920;-65
2023/03/18 00:58:09;;;;;;;;;;;;;;;9.63;100.00;97534.09;5109795;28;19920;-65
2023/03/18 01:00:36;;;;;;;;;;;;;;;9.65;100.00;97542.66;5118259;28;19970;-65
2023/03/18 01:03:03;;;;;;;;;;;;;;;9.64;100.00;97535.69;5118843;28;20030;-65
2023/03/18 01:05:30;;;;;;;;;;;;;;;9.66;100.00;97541.56;5117999;28;19930;-65
2023/03/18 01:07:58;;;;;;;;;;;;;;;9.66;100.00;97544.22;5120058;28;19959;-65
2023/03/18 01:10:26;;;;;;;;;;;;;;;9.63;100.00;97544.75;5121552;28;19924;-65
2023/03/18 01:12:52;;;;;;;;;;;;;;;9.65;100.00;97539.19;5120385;28;19924;-64
2023/03/18 01:15:20;;;;;;;;;;;;;;;9.61;100.00;97544.22;5116936;28;19959;-64
2023/03/18 01:17:48;;;;;;;;;;;;;;;9.63;100.00;97543.94;5118551;28;19931;-64
2023/03/18 01:20:16;;;;;;;;;;;;;;;9.63;100.00;97538.63;5121581;28;19946;-64
2023/03/18 01:22:43;;;;;;;;;;;;;;;9.61;100.00;97541.56;5121674;28;19928;-65
2023/03/18 01:25:12;;;;;;;;;;;;;;;9.58;100.00;97544.75;5122486;28;19920;-64
2023/03/18 01:27:39;;;;;;;;;;;;;;;9.59;100.00;97540.25;5122344;28;19956;-64
2023/03/18 01:30:08;;;;;;;;;;;;;;;9.59;100.00;97546.34;5127012;27;19924;-64
2023/03/18 01:32:34;;;;;;;;;;;;;;;9.56;100.00;97538.88;5125718;28;19995;-64
2023/03/18 01:35:01;;;;;;;;;;;;;;;9.58;100.00;97539.44;5123125;28;19999;-64
2023/03/18 01:37:27;;;;;;;;;;;;;;;9.50;100.00;97553.25;5122040;28;19980;-64
2023/03/18 01:39:54;;;;;;;;;;;;;;;9.54;100.00;97553.53;5123210;28;19924;-64
2023/03/18 01:42:21;;;;;;;;;;;;;;;9.57;100.00;97551.16;5125521;28;19995;-64
2023/03/18 01:44:48;;;;;;;;;;;;;;;9.54;100.00;97546.34;5124823;28;20486;-64
2023/03/18 01:47:16;;;;;;;;;;;;;;;9.52;100.00;97553.81;5122079;28;19992;-65
2023/03/18 01:49:44;;;;;;;;;;;;;;;9.53;100.00;97555.41;5121750;28;19924;-64
2023/03/18 01:52:14;;;;;;;;;;;;;;;9.50;100.00;97558.59;5121710;28;19952;-63
2023/03/18 01:54:43;;;;;;;;;;;;;;;9.49;100.00;97556.22;5121691;28;19987;-64
2023/03/18 01:57:10;;;;;;;;;;;;;;;9.47;100.00;97553.78;5121699;28;19920;-64
2023/03/18 01:59:39;;;;;;;;;;;;;;;9.47;100.00;97556.47;5121483;28;20406;-64
2023/03/18 02:02:07;;;;;;;;;;;;;;;9.51;100.00;97556.75;5124601;28;19988;-64
2023/03/18 02:04:36;;;;;;;;;;;;;;;9.48;100.00;97555.41;5124971;28;19959;-64
2023/03/18 02:07:02;;;;;;;;;;;;;;;9.49;100.00;97556.22;5121185;28;19927;-64
2023/03/18 02:09:28;;;;;;;;;;;;;;;9.46;100.00;97568.22;5121504;28;19958;-64
2023/03/18 02:11:55;;;;;;;;;;;;;;;9.46;100.00;97562.06;5123012;28;19999;-64
2023/03/18 02:14:24;;;;;;;;;;;;;;;9.46;100.00;97570.06;5123460;28;19999;-64
2023/03/18 02:16:53;;;;;;;;;;;;;;;9.43;100.00;97560.75;5122497;28;19924;-65
2023/03/18 02:19:26;;;;;;;;;;;;;;;9.30;100.00;97579.09;5121215;28;20412;-64
2023/03/18 02:21:55;;;;;;;;;;;;;;;9.30;100.00;97563.09;5122632;28;19920;-64
2023/03/18 02:24:27;;;;;;;;;;;;;;;9.33;100.00;97576.69;5124739;28;19951;-63
2023/03/18 02:26:58;;;;;;;;;;;;;;;9.35;100.00;97569.22;5123192;28;19932;-64
2023/03/18 02:29:27;;;;;;;;;;;;;;;9.35;100.00;97569.22;5121176;28;19969;-64
2023/03/18 02:31:55;;;;;;;;;;;;;;;9.17;100.00;97569.72;5123826;27;19952;-64
2023/03/18 02:34:22;;;;;;;;;;;;;;;9.09;100.00;97570.25;5124467;28;19931;-64
2023/03/18 02:36:48;;;;;;;;;;;;;;;9.06;100.00;97573.41;5123938;28;19924;-64
2023/03/18 02:39:15;;;;;;;;;;;;;;;9.13;100.00;97573.97;5121237;28;19950;-64
2023/03/18 02:41:42;;;;;;;;;;;;;;;9.21;100.00;97576.13;5120963;28;19959;-64
2023/03/18 02:44:09;;;;;;;;;;;;;;;9.25;100.00;97595.88;5119944;28;19924;-64
2023/03/18 02:46:41;;;;;;;;;;;;;;;9.24;100.00;97591.59;5120912;28;19950;-64
2023/03/18 02:49:08;;;;;;;;;;;;;;;9.24;100.00;97586.28;5124162;28;19962;-64
2023/03/18 02:51:35;;;;;;;;;;;;;;;9.21;100.00;97587.59;5124190;28;19920;-64
2023/03/18 02:54:05;;;;;;;;;;;;;;;9.22;100.00;97591.84;5121572;28;19973;-64
2023/03/18 02:56:31;;;;;;;;;;;;;;;8.97;100.00;97594.44;5120260;28;19924;-64
2023/03/18 02:58:58;;;;;;;;;;;;;;;8.78;100.00;97595.13;5122644;28;20015;-64
2023/03/18 03:01:24;;;;;;;;;;;;;;;8.87;100.00;97586.41;5127317;27;19962;-64
2023/03/18 03:03:52;;;;;;;;;;;;;;;8.95;100.00;97591.22;5121536;28;19936;-64
2023/03/18 03:06:18;;;;;;;;;;;;;;;9.01;100.00;97595.50;5123995;28;19939;-64
2023/03/18 03:08:45;;;;;;;;;;;;;;;9.06;100.00;97605.38;5123615;28;20012;-64
2023/03/18 03:11:11;;;;;;;;;;;;;;;9.08;100.00;97596.06;5120325;28;19983;-64
2023/03/18 03:13:38;;;;;;;;;;;;;;;9.09;100.00;97599.53;5120223;28;20085;-64
2023/03/18 03:16:05;;;;;;;;;;;;;;;9.07;100.00;97596.31;5123162;28;19931;-64
2023/03/18 03:18:31;;;;;;;;;;;;;;;9.08;100.00;97592.59;5123408;28;19931;-64
2023/03/18 03:20:59;;;;;;;;;;;;;;;9.08;100.00;97592.59;5121471;28;20002;-64
2023/03/18 03:23:26;;;;;;;;;;;;;;;9.01;100.00;97602.69;5119800;28;19951;-64
2023/03/18 03:25:52;;;;;;;;;;;;;;;9.00;100.00;97604.56;5121083;28;19930;-64
2023/03/18 03:28:19;;;;;;;;;;;;;;;9.04;100.00;97602.97;5123290;28;19924;-64
2023/03/18 03:30:45;;;;;;;;;;;;;;;9.03;100.00;97611.22;5123164;27;19931;-64
2023/03/18 03:33:11;;;;;;;;;;;;;;;8.99;100.00;97610.94;5119959;28;19974;-64
2023/03/18 03:35:38;;;;;;;;;;;;;;;8.99;100.00;97610.94;5119642;28;20026;-64
2023/03/18 03:38:06;;;;;;;;;;;;;;;9.02;100.00;97614.94;5122659;28;19920;-64
2023/03/18 03:40:33;;;;;;;;;;;;;;;9.03;100.00;97614.69;5122846;28;19956;-64
2023/03/18 03:42:59;;;;;;;;;;;;;;;9.01;100.00;97624.78;5120990;28;19969;-64
2023/03/18 03:45:26;;;;;;;;;;;;;;;9.00;100.00;97627.72;5119362;28;19956;-64
2023/03/18 03:47:52;;;;;;;;;;;;;;;9.01;100.00;97640.78;5120529;28;19924;-64
2023/03/18 03:50:20;;;;;;;;;;;;;;;8.96;100.00;97637.28;5122985;28;19978;-64
2023/03/18 03:52:47;;;;;;;;;;;;;;;8.95;100.00;97635.69;5122532;28;20288;-64
2023/03/18 03:55:16;;;;;;;;;;;;;;;8.93;100.00;97625.31;5119389;28;20143;-64
2023/03/18 03:57:42;;;;;;;;;;;;;;;8.97;100.00;97633.59;5119365;28;20006;-64
2023/03/18 04:00:12;;;;;;;;;;;;;;;8.96;100.00;97637.28;5122559;27;19924;-64
2023/03/18 04:02:38;;;;;;;;;;;;;;;8.93;100.00;97635.16;5122510;28;19920;-64
2023/03/18 04:05:05;;;;;;;;;;;;;;;8.90;100.00;97633.81;5119692;28;20023;-64
2023/03/18 04:07:31;;;;;;;;;;;;;;;8.89;100.00;97637.53;5119008;28;19963;-65
2023/03/18 04:09:58;;;;;;;;;;;;;;;8.89;100.00;97636.72;5121075;28;20061;-65
2023/03/18 04:12:25;;;;;;;;;;;;;;;8.90;100.00;97643.66;5122374;28;20019;-65
2023/03/18 04:14:52;;;;;;;;;;;;;;;8.91;100.00;97638.06;5121321;28;19991;-64
2023/03/18 04:17:18;;;;;;;;;;;;;;;8.92;100.00;97633.53;5118769;28;19924;-63
2023/03/18 04:19:44;;;;;;;;;;;;;;;8.90;100.00;97636.47;5119033;28;19966;-64
2023/03/18 04:22:11;;;;;;;;;;;;;;;8.91;100.00;97640.72;5121400;28;19955;-65
2023/03/18 04:24:37;;;;;;;;;;;;;;;8.90;100.00;97633.00;5122595;28;19955;-65
2023/03/18 04:27:04;;;;;;;;;;;;;;;8.84;100.00;97634.03;5119560;28;19999;-65
2023/03/18 04:29:32;;;;;;;;;;;;;;;8.82;100.00;97631.63;5118854;28;19967;-64
2023/03/18 04:31:58;;;;;;;;;;;;;;;8.80;100.00;97635.59;5122483;27;19928;-64
2023/03/18 04:34:25;;;;;;;;;;;;;;;8.80;100.00;97639.06;5122161;28;19920;-65
2023/03/18 04:36:51;;;;;;;;;;;;;;;8.79;100.00;97637.47;5119717;28;19978;-64
2023/03/18 04:39:17;;;;;;;;;;;;;;;8.77;100.00;97652.09;5118474;28;19931;-64
2023/03/18 04:41:44;;;;;;;;;;;;;;;8.72;100.00;97647.56;5118507;28;19948;-64
2023/03/18 04:44:11;;;;;;;;;;;;;;;8.70;100.00;97656.88;5122113;28;19987;-64
2023/03/18 04:46:38;;;;;;;;;;;;;;;8.70;100.00;97657.63;5121929;28;19971;-63
2023/03/18 04:49:05;;;;;;;;;;;;;;;8.67;100.00;97655.50;5118882;28;20007;-63
2023/03/18 04:51:31;;;;;;;;;;;;;;;8.66;100.00;97648.59;5118371;28;19967;-63
2023/03/18 04:53:57;;;;;;;;;;;;;;;8.72;100.00;97654.72;5120495;28;20019;-64
2023/03/18 04:56:24;;;;;;;;;;;;;;;8.72;100.00;97650.22;5120677;28;19938;-64
2023/03/18 04:58:51;;;;;;;;;;;;;;;8.66;100.00;97645.91;5118753;28;19931;-64
2023/03/18 05:01:17;;;;;;;;;;;;;;;8.63;100.00;97649.88;5119721;28;19956;-64
2023/03/18 05:03:46;;;;;;;;;;;;;;;8.61;100.00;97654.66;5118292;28;19959;-64
2023/03/18 05:06:20;;;;;;;;;;;;;;;8.64;100.00;97656.81;5121950;28;19924;-62
2023/03/18 05:08:46;;;;;;;;;;;;;;;8.61;100.00;97656.50;5121448;28;19923;-64
2023/03/18 05:11:13;;;;;;;;;;;;;;;8.61;100.00;97657.31;5118134;28;19927;-64
2023/03/18 05:13:40;;;;;;;;;;;;;;;8.58;100.00;97657.03;5118176;28;19946;-64
2023/03/18 05:16:07;;;;;;;;;;;;;;;8.50;100.00;97658.31;5121464;28;20108;-64
2023/03/18 05:18:34;;;;;;;;;;;;;;;8.52;100.00;97653.53;5121173;28;19985;-63
2023/03/18 05:21:02;;;;;;;;;;;;;;;8.50;100.00;97653.00;5119080;28;19923;-64
2023/03/18 05:23:29;;;;;;;;;;;;;;;8.48;100.00;97660.41;5117847;28;19930;-64
2023/03/18 05:25:55;;;;;;;;;;;;;;;8.48;100.00;97660.41;5119548;28;19935;-64
2023/03/18 05:28:21;;;;;;;;;;;;;;;8.47;100.00;97658.84;5121451;28;19951;-65
2023/03/18 05:30:48;;;;;;;;;;;;;;;8.48;100.00;97668.41;5121095;28;19931;-64
2023/03/18 05:33:14;;;;;;;;;;;;;;;8.51;100.00;97673.22;5117947;28;19928;-65
2023/03/18 05:35:41;;;;;;;;;;;;;;;8.47;100.00;97669.47;5117875;28;19924;-65
2023/03/18 05:38:09;;;;;;;;;;;;;;;8.56;100.00;97667.94;5121233;28;19924;-64
2023/03/18 05:40:36;;;;;;;;;;;;;;;8.54;100.00;97667.38;5121239;28;19928;-64
2023/03/18 05:43:03;;;;;;;;;;;;;;;8.57;100.00;97669.53;5119000;28;19920;-64
2023/03/18 05:45:29;;;;;;;;;;;;;;;8.51;100.00;97675.88;5118047;28;19928;-64
2023/03/18 05:47:56;;;;;;;;;;;;;;;8.43;100.00;97672.91;5119633;28;20462;-64
2023/03/18 05:50:32;;;;;;;;;;;;;;;7.92;100.00;97669.75;5121341;28;19924;-65
2023/03/18 05:52:58;;;;;;;;;;;;;;;7.42;100.00;97679.88;5119404;28;19932;-64
2023/03/18 05:55:27;;;;;;;;;;;;;;;7.63;100.00;97668.41;5118039;28;19928;-64
2023/03/18 05:57:53;;;;;;;;;;;;;;;7.91;100.00;97668.16;5119263;28;19924;-63
2023/03/18 06:00:20;;;;;;;;;;;;;;;8.00;100.00;97666.66;5121861;28;19928;-63
2023/03/18 06:02:46;;;;;;;;;;;;;;;8.11;100.00;97664.88;5121019;28;19928;-64
2023/03/18 06:05:13;;;;;;;;;;;;;;;8.10;100.00;97661.44;5116846;28;19952;-64
2023/03/18 06:07:40;;;;;;;;;;;;;;;8.19;100.00;97658.31;5117895;28;19980;-64
2023/03/18 06:10:07;;;;;;;;;;;;;;;8.11;100.00;97671.00;5123616;28;19970;-64
2023/03/18 06:12:35;;;;;;;;;;;;;;;8.18;100.00;97672.66;5125213;28;19924;-64
2023/03/18 06:15:03;;;;;;;;;;;;;;;8.21;100.00;97672.94;5122832;28;19919;-64
2023/03/18 06:17:30;;;;;;;;;;;;;;;8.24;100.00;97679.63;5121493;28;19928;-64
2023/03/18 06:19:57;;;;;;;;;;;;;;;8.17;100.00;97685.13;5123725;28;19970;-64
2023/03/18 06:22:24;;;;;;;;;;;;;;;8.27;100.00;97685.25;5125179;27;19983;-64
2023/03/18 06:24:52;;;;;;;;;;;;;;;8.32;100.00;97685.34;5123842;28;19924;-64
2023/03/18 06:27:18;;;;;;;;;;;;;;;8.36;100.00;97691.72;5121696;28;19994;-64
2023/03/18 06:29:46;;;;;;;;;;;;;;;8.31;100.00;97689.03;5123318;27;19955;-64
2023/03/18 06:32:12;;;;;;;;;;;;;;;8.39;100.00;97691.22;5125188;28;19919;-64
2023/03/18 06:34:39;;;;;;;;;;;;;;;8.42;100.00;97692.56;5124893;28;19938;-64
2023/03/18 06:37:06;;;;;;;;;;;;;;;8.14;100.00;97680.31;5121831;28;19928;-64
2023/03/18 06:39:33;;;;;;;;;;;;;;;8.15;100.00;97690.72;5120927;28;19980;-64
2023/03/18 06:41:59;;;;;;;;;;;;;;;8.08;100.00;97686.66;5123600;28;19956;-64
2023/03/18 06:44:26;;;;;;;;;;;;;;;8.14;100.00;97685.66;5124692;28;19928;-64
2023/03/18 06:46:55;;;;;;;;;;;;;;;8.25;100.00;97694.53;5123599;28;20655;-64
2023/03/18 06:49:22;;;;;;;;;;;;;;;8.25;100.00;97700.66;5121019;28;19931;-64
2023/03/18 06:51:49;;;;;;;;;;;;;;;8.12;100.00;97699.22;5120558;28;19924;-64
2023/03/18 06:54:15;;;;;;;;;;;;;;;7.94;100.00;97704.09;5123232;28;19924;-64
2023/03/18 06:56:42;;;;;;;;;;;;;;;8.05;100.00;97716.41;5124313;28;19924;-64
2023/03/18 06:59:09;;;;;;;;;;;;;;;8.06;100.00;97721.50;5121237;28;19924;-64
2023/03/18 07:01:36;;;;;;;;;;;;;;;7.99;100.00;97722.75;5121243;27;19971;-64
2023/03/18 07:04:05;;;;;;;;;;;;;;;8.01;100.00;97736.59;5123564;28;19924;-64
2023/03/18 07:06:32;;;;;;;;;;;;;;;8.06;100.00;97728.66;5124515;28;19923;-64
2023/03/18 07:09:00;;;;;;;;;;;;;;;7.82;100.00;97738.78;5122233;28;19932;-64
2023/03/18 07:11:26;;;;;;;;;;;;;;;7.69;100.00;97741.84;5120887;28;19924;-64
2023/03/18 07:13:53;;;;;;;;;;;;;;;7.66;100.00;97738.88;5122122;28;19959;-64
2023/03/18 07:16:19;;;;;;;;;;;;;;;7.69;100.00;97735.72;5124370;28;19939;-64
2023/03/18 07:18:46;;;;;;;;;;;;;;;7.48;100.00;97727.50;5123908;28;19963;-64
2023/03/18 07:21:15;;;;;;;;;;;;;;;7.64;100.00;97735.66;5119617;28;19970;-64
2023/03/18 07:23:41;;;;;;;;;;;;;;;7.76;100.00;97739.00;5120309;28;19948;-63
2023/03/18 07:26:08;;;;;;;;;;;;;;;7.57;100.00;97741.16;5123622;28;19988;-63
2023/03/18 07:28:34;;;;;;;;;;;;;;;7.43;100.00;97758.50;5123579;28;19958;-63
2023/03/18 07:31:00;;;;;;;;;;;;;;;7.44;100.00;97752.16;5122611;27;19924;-64
2023/03/18 07:33:27;;;;;;;;;;;;;;;7.23;100.00;97751.09;5119920;28;19931;-64
2023/03/18 07:35:54;;;;;;;;;;;;;;;7.45;100.00;97749.25;5121474;28;20598;-65
2023/03/18 07:38:22;;;;;;;;;;;;;;;7.38;100.00;97753.94;5123278;28;19935;-63
2023/03/18 07:40:48;;;;;;;;;;;;;;;7.20;100.00;97750.78;5122409;28;20048;-64
2023/03/18 07:43:16;;;;;;;;;;;;;;;7.03;100.00;97745.47;5119798;28;19987;-64
2023/03/18 07:45:42;;;;;;;;;;;;;;;6.80;100.00;97741.19;5119763;28;19928;-64
2023/03/18 07:48:08;;;;;;;;;;;;;;;6.83;100.00;97750.50;5123264;28;19987;-64
2023/03/18 07:50:35;;;;;;;;;;;;;;;6.86;100.00;97755.31;5123067;28;19999;-64
2023/03/18 07:53:02;;;;;;;;;;;;;;;6.91;100.00;97742.13;5120744;28;19924;-64
2023/03/18 07:55:30;;;;;;;;;;;;;;;6.97;100.00;97739.28;5119590;28;19924;-63
2023/03/18 07:57:56;;;;;;;;;;;;;;;6.93;100.00;97748.00;5121092;28;19928;-63
2023/03/18 08:00:23;;;;;;;;;;;;;;;6.95;100.00;97744.06;5124554;28;19979;-64
2023/03/18 08:02:49;;;;;;;;;;;;;;;7.01;100.00;97748.38;5122278;28;20421;-63
2023/03/18 08:05:15;;;;;;;;;;;;;;;7.08;100.00;97748.22;5119542;28;19991;-63
2023/03/18 08:07:42;;;;;;;;;;;;;;;7.13;100.00;97745.63;5119432;28;19928;-65
2023/03/18 08:10:09;;;;;;;;;;;;;;;7.16;100.00;97750.44;5122695;28;19975;-64
2023/03/18 08:12:37;;;;;;;;;;;;;;;7.38;100.00;97748.63;5121534;28;19923;-64
2023/03/18 08:15:04;;;;;;;;;;;;;;;7.45;100.00;97751.91;5120161;28;20614;-64
2023/03/18 08:17:31;;;;;;;;;;;;;;;7.63;100.00;97755.31;5119345;28;19924;-64
2023/03/18 08:19:57;;;;;;;;;;;;;;;7.73;100.00;97756.25;5120984;28;19982;-64
2023/03/18 08:22:24;;;;;;;;;;;;;;;7.87;100.00;97760.13;5122525;28;19927;-64
2023/03/18 08:24:50;;;;;;;;;;;;;;;7.87;100.00;97757.44;5121645;28;19930;-64
2023/03/18 08:27:17;;;;;;;;;;;;;;;7.90;100.00;97764.13;5119306;28;19935;-64
2023/03/18 08:29:45;;;;;;;;;;;;;;;7.80;100.00;97762.16;5120425;27;20413;-64
2023/03/18 08:32:11;;;;;;;;;;;;;;;7.79;100.00;97759.75;5117958;28;20059;-64
2023/03/18 08:34:38;;;;;;;;;;;;;;;7.77;100.00;97757.31;5118007;28;19999;-65
2023/03/18 08:37:04;;;;;;;;;;;;;;;7.89;100.00;97752.69;5122273;28;19999;-64
2023/03/18 08:39:32;;;;;;;;;;;;;;;8.04;100.00;97757.38;5121672;28;20117;-64
2023/03/18 08:41:59;;;;;;;;;;;;;;;8.09;100.00;97760.88;5119259;28;20497;-64
2023/03/18 08:44:25;;;;;;;;;;;;;;;8.10;100.00;97757.19;5118855;28;19924;-64
2023/03/18 08:46:53;;;;;;;;;;;;;;;8.08;100.00;97759.28;5119856;28;19924;-64
2023/03/18 08:49:19;;;;;;;;;;;;;;;8.15;100.00;97749.25;5122275;28;19924;-64
2023/03/18 08:51:46;;;;;;;;;;;;;;;8.16;100.00;97752.72;5121704;28;20002;-64
2023/03/18 08:54:13;;;;;;;;;;;;;;;8.21;100.00;97752.75;5118776;28;19924;-64
2023/03/18 08:56:39;;;;;;;;;;;;;;;8.25;100.00;97763.69;5118437;28;19960;-64
2023/03/18 08:59:06;;;;;;;;;;;;;;;8.26;100.00;97760.00;5121579;28;19959;-64
2023/03/18 09:01:32;;;;;;;;;;;;;;;8.42;100.00;97765.22;5123128;28;19927;-64
2023/03/18 09:04:00;;;;;;;;;;;;;;;8.44;100.00;97760.47;5120402;28;19928;-64
2023/03/18 09:06:28;;;;;;;;;;;;;;;8.39;100.00;97752.41;5121880;28;19958;-64
2023/03/18 09:08:54;;;;;;;;;;;;;;;8.42;100.00;97757.25;5120450;28;19931;-64
2023/03/18 09:11:20;;;;;;;;;;;;;;;8.42;100.00;97759.09;5118317;28;19987;-64
2023/03/18 09:13:47;;;;;;;;;;;;;;;8.49;100.00;97755.19;5118769;28;19932;-64
2023/03/18 09:16:13;;;;;;;;;;;;;;;8.57;100.00;97762.69;5122125;28;19924;-64
2023/03/18 09:18:40;;;;;;;;;;;;;;;8.62;100.00;97765.41;5121754;28;19991;-64
2023/03/18 09:21:08;;;;;;;;;;;;;;;8.66;100.00;97755.84;5118655;28;20000;-64
2023/03/18 09:23:34;;;;;;;;;;;;;;;8.71;100.00;97756.94;5118199;28;19927;-64
2023/03/18 09:26:02;;;;;;;;;;;;;;;8.77;100.00;97762.06;5120517;28;19931;-64
2023/03/18 09:28:28;;;;;;;;;;;;;;;8.86;100.00;97773.03;5121555;28;19924;-63
2023/03/18 09:30:55;;;;;;;;;;;;;;;8.89;100.00;97756.53;5121564;28;20361;-63
2023/03/18 09:33:23;;;;;;;;;;;;;;;8.92;100.00;97756.84;5118126;28;19935;-64
2023/03/18 09:35:49;;;;;;;;;;;;;;;9.03;100.00;97755.06;5119017;28;20521;-64
2023/03/18 09:38:18;;;;;;;;;;;;;;;9.06;100.00;97760.69;5121667;28;19934;-64
2023/03/18 09:40:50;;;;;;;;;;;;;;;9.13;100.00;97755.09;5121067;28;19935;-64
2023/03/18 09:43:23;;;;;;;;;;;;;;;9.23;100.00;97752.50;5118029;28;19924;-64
2023/03/18 09:45:55;;;;;;;;;;;;;;;9.27;100.00;97748.28;5122617;28;19952;-64
2023/03/18 09:48:33;;;;;;;;;;;;;;;9.31;100.00;97746.72;5125533;28;20371;-64
2023/03/18 09:51:05;;;;;;;;;;;;;;;9.37;100.00;97745.69;5123270;28;19977;-64
2023/03/18 09:53:40;;;;;;;;;;;;;;;9.39;100.00;97745.41;5121578;28;19932;-64
2023/03/18 09:56:12;;;;;;;;;;;;;;;9.37;100.00;97743.00;5124867;28;19924;-64
2023/03/18 09:58:45;;;;;;;;;;;;;;;9.44;100.00;97740.13;5125532;28;19967;-64
2023/03/18 10:01:13;;;;;;;;;;;;;;;9.59;100.00;97740.97;5123969;27;19963;-64
2023/03/18 10:03:42;;;;;;;;;;;;;;;9.69;100.00;97743.69;5120960;28;19924;-65
2023/03/18 10:06:15;;;;;;;;;;;;;;;9.68;100.00;97757.28;5125326;28;19924;-65
2023/03/18 10:08:52;;;;;;;;;;;;;;;9.74;100.00;97749.03;5125277;28;19973;-64
2023/03/18 10:11:22;;;;;;;;;;;;;;;9.81;100.00;97745.34;5121626;28;19958;-64
2023/03/18 10:13:54;;;;;;;;;;;;;;;9.90;100.00;97739.22;5121020;28;19924;-64
2023/03/18 10:16:23;;;;;;;;;;;;;;;9.92;100.00;97752.28;5125239;28;19949;-64
2023/03/18 10:18:50;;;;;;;;;;;;;;;9.98;100.00;97745.91;5124001;28;19945;-64
2023/03/18 10:21:20;;;;;;;;;;;;;;;9.92;100.00;97746.97;5121466;28;19967;-65
2023/03/18 10:23:51;;;;;;;;;;;;;;;9.99;100.00;97744.84;5121546;28;19966;-65
2023/03/18 10:26:20;;;;;;;;;;;;;;;10.11;100.00;97732.06;5124821;28;19945;-65
2023/03/18 10:28:53;;;;;;;;;;;;;;;10.08;100.00;97746.75;5124438;28;19970;-65
2023/03/18 10:31:28;;;;;;;;;;;;;;;10.18;100.00;97741.44;5122903;27;19924;-65
2023/03/18 10:33:57;;;;;;;;;;;;;;;10.16;100.00;97742.78;5122662;28;19932;-64
2023/03/18 10:36:25;;;;;;;;;;;;;;;10.24;100.00;97744.94;5123476;28;19942;-66
2023/03/18 10:38:55;;;;;;;;;;;;;;;10.32;100.00;97747.06;5122004;28;19923;-65
2023/03/18 10:41:22;;;;;;;;;;;;;;;10.41;100.00;97736.66;5120876;28;19943;-64
2023/03/18 10:43:50;;;;;;;;;;;;;;;10.34;100.00;97733.47;5121381;28;19930;-64
2023/03/18 10:46:19;;;;;;;;;;;;;;;10.53;100.00;97739.88;5124461;28;19927;-64
2023/03/18 10:48:48;;;;;;;;;;;;;;;10.48;100.00;97735.34;5124776;28;19969;-64
2023/03/18 10:51:18;;;;;;;;;;;;;;;10.35;100.00;97725.19;5121173;28;19924;-64
2023/03/18 10:53:49;;;;;;;;;;;;;;;10.56;100.00;97734.81;5121364;28;19963;-64
2023/03/18 10:56:17;;;;;;;;;;;;;;;10.65;100.00;97730.53;5123546;28;20060;-64
2023/03/18 10:58:45;;;;;;;;;;;;;;;10.75;100.00;97721.72;5124647;28;19928;-63
2023/03/18 11:01:13;;;;;;;;;;;;;;;10.89;100.00;97724.66;5122969;27;19943;-64
2023/03/18 11:03:42;;;;;;;;;;;;;;;10.85;100.00;97724.41;5121098;28;19939;-64
2023/03/18 11:06:15;;;;;;;;;;;;;;;10.97;100.00;97719.56;5124658;28;19924;-65
2023/03/18 11:08:41;;;;;;;;;;;;;;;11.00;100.00;97723.56;5123507;28;19955;-65
2023/03/18 11:11:18;;;;;;;;;;;;;;;11.25;100.00;97704.81;5121264;28;19924;-65
2023/03/18 11:13:51;;;;;;;;;;;;;;;11.25;99.72;97710.16;5121134;28;19946;-65
2023/03/18 11:16:22;;;;;;;;;;;;;;;11.13;100.00;97705.13;5120953;28;19928;-65
2023/03/18 11:18:50;;;;;;;;;;;;;;;11.12;100.00;97698.16;5121167;28;19928;-65
2023/03/18 11:21:16;;;;;;;;;;;;;;;11.26;100.00;97701.06;5124449;28;19926;-65
2023/03/18 11:23:55;;;;;;;;;;;;;;;11.39;100.00;97703.16;5124144;28;19966;-65
2023/03/18 11:26:21;;;;;;;;;;;;;;;11.42;100.00;97697.25;5112103;28;19925;-65
2023/03/18 11:28:49;;;;;;;;;;;;;;;11.51;100.00;97697.50;5111904;28;19924;-65
2023/03/18 11:31:16;;;;;;;;;;;;;;;11.52;100.00;97699.91;5122355;27;20003;-65
2023/03/18 11:33:43;;;;;;;;;;;;;;;11.52;100.00;97691.88;5120440;28;20265;-65
2023/03/18 11:36:14;;;;;;;;;;;;;;;11.53;100.00;97696.16;5111999;28;19928;-65
2023/03/18 11:38:42;;;;;;;;;;;;;;;11.72;100.00;97699.03;5111413;28;19992;-65
2023/03/18 11:41:09;;;;;;;;;;;;;;;11.72;100.00;97691.81;5111772;28;19951;-65
2023/03/18 11:43:36;;;;;;;;;;;;;;;11.83;100.00;97685.34;5111838;28;19927;-64
2023/03/18 11:46:05;;;;;;;;;;;;;;;11.94;100.00;97687.97;5112045;28;19931;-64
2023/03/18 11:48:35;;;;;;;;;;;;;;;11.99;100.00;97687.91;5111543;28;19970;-64
2023/03/18 11:51:21;;;;;;;;;;;;;;;11.98;100.00;97683.63;5111543;28;19942;-64
2023/03/18 11:53:53;;;;;;;;;;;;;;;11.95;100.00;97684.19;5110823;28;19927;-64
2023/03/18 11:56:23;;;;;;;;;;;;;;;12.11;100.00;97678.47;5111140;28;19932;-64
2023/03/18 11:59:00;;;;;;;;;;;;;;;12.19;100.00;97672.50;5119101;28;19924;-64
2023/03/18 12:01:31;;;;;;;;;;;;;;;12.07;100.00;97656.00;5126235;27;19928;-64
2023/03/18 12:04:14;;;;;;;;;;;;;;;12.38;100.00;97659.25;5121228;28;19924;-64
2023/03/18 12:06:43;;;;;;;;;;;;;;;12.47;100.00;97660.28;5121106;28;19924;-64
2023/03/18 12:09:15;;;;;;;;;;;;;;;12.43;100.00;97659.22;5118277;28;20011;-64
2023/03/18 12:12:00;;;;;;;;;;;;;;;12.41;100.00;97653.34;5119378;28;19924;-64
2023/03/18 12:14:31;;;;;;;;;;;;;;;12.53;100.00;97645.75;5120639;28;19940;-64
2023/03/18 12:17:04;;;;;;;;;;;;;;;12.54;99.98;97650.00;5121095;28;19937;-64
2023/03/18 12:19:38;;;;;;;;;;;;;;;12.62;100.00;97640.59;5122583;28;19920;-64
2023/03/18 12:22:12;;;;;;;;;;;;;;;12.66;99.87;97637.03;5119952;28;19995;-64
2023/03/18 12:24:53;;;;;;;;;;;;;;;12.81;99.41;97631.53;5119367;28;19927;-64
2023/03/18 12:27:27;;;;;;;;;;;;;;;12.83;99.12;97637.44;5109786;28;19928;-64
2023/03/18 12:30:02;;;;;;;;;;;;;;;12.81;99.61;97628.06;5113663;27;19931;-64
2023/03/18 12:32:34;;;;;;;;;;;;;;;13.13;96.71;97630.16;5122696;28;19923;-64
2023/03/18 12:35:08;;;;;;;;;;;;;;;13.26;95.79;97616.06;5120383;28;19920;-65
2023/03/18 12:37:39;;;;;;;;;;;;;;;13.33;96.96;97608.47;5118907;28;19977;-65
2023/03/18 12:40:16;;;;;;;;;;;;;;;13.36;95.76;97607.91;5121552;28;19958;-64
2023/03/18 12:42:49;;;;;;;;;;;;;;;13.04;99.52;97602.34;5122217;28;19993;-65
2023/03/18 12:45:19;;;;;;;;;;;;;;;13.29;99.02;97599.41;5109583;28;20658;-66
2023/03/18 12:47:49;;;;;;;;;;;;;;;13.38;97.56;97592.31;5110353;28;19924;-64
2023/03/18 12:50:18;;;;;;;;;;;;;;;13.48;97.18;97595.66;5110154;28;19920;-65